createdAt,value
2018-11-11T00:01:52.716Z,11.10
2018-11-11T00:04:55.782Z,10.20
2018-11-11T00:07:58.883Z,10.20
2018-11-11T00:11:01.973Z,10.57
2018-11-11T00:14:05.147Z,9.63
2018-11-11T00:17:08.246Z,10.70
2018-11-11T00:20:11.940Z,10.33
2018-11-11T00:23:15.014Z,10.40
2018-11-11T00:26:18.117Z,11.20
2018-11-11T00:29:21.206Z,10.37
2018-11-11T00:32:24.302Z,10.30
2018-11-11T00:35:27.382Z,10.23
2018-11-11T00:38:30.469Z,9.90
2018-11-11T00:41:33.542Z,9.77
2018-11-11T00:44:36.625Z,9.70
2018-11-11T00:47:39.761Z,10.23
2018-11-11T00:50:42.864Z,10.30
2018-11-11T00:53:45.963Z,10.47
2018-11-11T00:56:49.065Z,10.33
2018-11-11T00:59:52.138Z,9.47
2018-11-11T01:02:55.266Z,9.73
2018-11-11T01:05:58.357Z,10.33
2018-11-11T01:09:01.515Z,10.87
2018-11-11T01:12:04.749Z,10.60
2018-11-11T01:15:08.984Z,10.60
2018-11-11T01:18:12.069Z,10.37
2018-11-11T01:21:15.174Z,9.97
2018-11-11T01:24:18.285Z,10.97
2018-11-11T01:27:21.378Z,10.07
2018-11-11T01:30:24.479Z,10.50
2018-11-11T01:33:27.558Z,10.50
2018-11-11T01:36:30.702Z,11.83
2018-11-11T01:39:33.824Z,10.97
2018-11-11T01:42:36.935Z,10.80
2018-11-11T01:45:40.018Z,11.40
2018-11-11T01:48:43.114Z,11.63
2018-11-11T01:51:46.181Z,11.63
2018-11-11T01:54:49.273Z,12.37
2018-11-11T01:57:52.357Z,11.67
2018-11-11T02:00:55.441Z,12.97
2018-11-11T02:03:58.527Z,11.73
2018-11-11T02:07:01.638Z,12.83
2018-11-11T02:10:05.838Z,12.30
2018-11-11T02:13:08.929Z,13.03
2018-11-11T02:16:12.087Z,12.27
2018-11-11T02:19:15.163Z,12.23
2018-11-11T02:22:18.301Z,12.63
2018-11-11T02:25:21.399Z,12.67
2018-11-11T02:28:24.501Z,13.17
2018-11-11T02:31:27.578Z,11.70
2018-11-11T02:34:30.694Z,11.63
2018-11-11T02:37:33.839Z,12.43
2018-11-11T02:40:36.933Z,11.77
2018-11-11T02:43:40.010Z,12.00
2018-11-11T02:46:43.106Z,11.60
2018-11-11T02:49:46.198Z,11.90
2018-11-11T02:52:49.266Z,11.33
2018-11-11T02:55:52.367Z,11.83
2018-11-11T02:58:55.441Z,11.67
2018-11-11T03:01:58.554Z,10.67
2018-11-11T03:05:01.622Z,11.03
2018-11-11T03:08:04.754Z,11.60
2018-11-11T03:11:08.011Z,10.97
2018-11-11T03:14:17.027Z,11.13
2018-11-11T03:17:20.127Z,12.27
2018-11-11T03:20:23.218Z,11.50
2018-11-11T03:23:26.306Z,11.97
2018-11-11T03:26:29.404Z,11.10
2018-11-11T03:29:32.498Z,11.53
2018-11-11T03:32:35.617Z,11.67
2018-11-11T03:35:38.751Z,11.40
2018-11-11T03:38:41.846Z,11.97
2018-11-11T03:41:44.996Z,12.10
2018-11-11T03:44:48.090Z,12.07
2018-11-11T03:47:51.969Z,11.70
2018-11-11T03:50:55.049Z,11.90
2018-11-11T03:53:58.166Z,11.63
2018-11-11T03:57:01.242Z,12.50
2018-11-11T04:00:04.397Z,12.30
2018-11-11T04:03:07.509Z,12.93
2018-11-11T04:06:10.577Z,14.03
2018-11-11T04:09:13.679Z,13.43
2018-11-11T04:12:16.764Z,13.23
2018-11-11T04:15:20.318Z,13.60
2018-11-11T04:18:23.405Z,13.97
2018-11-11T04:21:26.526Z,13.40
2018-11-11T04:24:29.614Z,14.40
2018-11-11T04:27:32.744Z,14.07
2018-11-11T04:30:35.855Z,14.50
2018-11-11T04:33:38.934Z,14.37
2018-11-11T04:36:42.031Z,14.67
2018-11-11T04:39:45.105Z,13.87
2018-11-11T04:42:48.200Z,13.57
2018-11-11T04:45:51.277Z,12.60
2018-11-11T04:48:54.369Z,13.50
2018-11-11T04:51:57.468Z,13.07
2018-11-11T04:55:00.559Z,13.50
2018-11-11T04:58:03.662Z,13.87
2018-11-11T05:01:06.731Z,13.37
2018-11-11T05:04:09.832Z,13.37
2018-11-11T05:07:12.901Z,13.67
2018-11-11T05:10:16.015Z,13.83
2018-11-11T05:13:19.083Z,13.03
2018-11-11T05:16:22.178Z,13.27
2018-11-11T05:19:25.275Z,13.60
2018-11-11T05:22:28.392Z,12.17
2018-11-11T05:25:31.470Z,12.47
2018-11-11T05:28:34.558Z,12.10
2018-11-11T05:31:37.658Z,12.13
2018-11-11T05:34:40.766Z,12.30
2018-11-11T05:37:43.906Z,10.27
2018-11-11T05:40:46.998Z,9.63
2018-11-11T05:43:50.112Z,10.27
2018-11-11T05:46:53.210Z,10.13
2018-11-11T05:49:56.317Z,10.67
2018-11-11T05:52:59.423Z,10.77
2018-11-11T05:56:02.509Z,10.93
2018-11-11T05:59:05.822Z,11.07
2018-11-11T06:02:08.894Z,10.40
2018-11-11T06:05:13.154Z,11.43
2018-11-11T06:08:16.246Z,11.33
2018-11-11T06:11:19.322Z,11.00
2018-11-11T06:14:22.397Z,10.53
2018-11-11T06:17:25.533Z,9.40
2018-11-11T06:20:28.581Z,9.80
2018-11-11T06:23:31.654Z,9.20
2018-11-11T06:26:34.754Z,9.33
2018-11-11T06:29:37.838Z,9.63
2018-11-11T06:32:40.934Z,9.23
2018-11-11T06:35:43.993Z,9.77
2018-11-11T06:38:47.098Z,8.63
2018-11-11T06:41:50.169Z,8.83
2018-11-11T06:44:53.258Z,7.93
2018-11-11T06:47:56.365Z,8.23
2018-11-11T06:50:59.434Z,8.07
2018-11-11T06:54:02.547Z,7.27
2018-11-11T06:57:05.654Z,7.50
2018-11-11T07:00:10.926Z,7.70
2018-11-11T07:03:25.493Z,7.33
2018-11-11T07:06:29.111Z,7.13
2018-11-11T07:09:32.188Z,7.40
2018-11-11T07:12:35.278Z,7.40
2018-11-11T07:15:38.366Z,6.93
2018-11-11T07:18:41.865Z,7.60
2018-11-11T07:21:44.966Z,7.63
2018-11-11T07:24:48.081Z,7.73
2018-11-11T07:27:51.196Z,6.87
2018-11-11T07:30:54.298Z,8.10
2018-11-11T07:33:57.398Z,7.63
2018-11-11T07:37:00.481Z,7.43
2018-11-11T07:40:03.622Z,7.17
2018-11-11T07:43:06.693Z,8.00
2018-11-11T07:46:09.797Z,6.77
2018-11-11T07:49:12.945Z,7.77
2018-11-11T07:52:16.056Z,8.20
2018-11-11T07:55:19.159Z,7.40
2018-11-11T07:58:23.382Z,7.60
2018-11-11T08:01:26.463Z,7.80
2018-11-11T08:04:29.558Z,7.50
2018-11-11T08:07:32.648Z,8.37
2018-11-11T08:10:47.402Z,7.80
2018-11-11T08:13:50.483Z,8.13
2018-11-11T08:16:53.644Z,7.97
2018-11-11T08:19:56.684Z,7.87
2018-11-11T08:22:59.774Z,8.00
2018-11-11T08:26:02.868Z,7.37
2018-11-11T08:29:06.026Z,7.13
2018-11-11T08:32:09.189Z,7.70
2018-11-11T08:35:12.278Z,7.07
2018-11-11T08:38:15.380Z,6.93
2018-11-11T08:41:18.468Z,6.57
2018-11-11T08:44:21.548Z,6.23
2018-11-11T08:47:36.781Z,6.03
2018-11-11T08:50:39.861Z,6.13
2018-11-11T08:53:42.933Z,6.20
2018-11-11T08:56:46.010Z,5.73
2018-11-11T08:59:49.082Z,5.60
2018-11-11T09:02:52.171Z,5.93
2018-11-11T09:05:55.237Z,5.67
2018-11-11T09:08:58.325Z,5.97
2018-11-11T09:12:01.410Z,6.03
2018-11-11T09:15:05.022Z,6.80
2018-11-11T09:18:08.094Z,6.90
2018-11-11T09:21:11.220Z,6.83
2018-11-11T09:24:14.624Z,6.27
2018-11-11T09:27:17.741Z,6.30
2018-11-11T09:30:20.884Z,5.57
2018-11-11T09:33:23.942Z,6.40
2018-11-11T09:36:27.056Z,5.50
2018-11-11T09:39:30.158Z,9.73
2018-11-11T09:42:33.276Z,5.77
2018-11-11T09:45:36.330Z,5.53
2018-11-11T09:48:39.440Z,4.93
2018-11-11T09:51:42.528Z,4.10
2018-11-11T09:54:45.627Z,4.03
2018-11-11T09:57:48.720Z,4.30
2018-11-11T10:00:51.809Z,4.77
2018-11-11T10:04:04.657Z,4.33
2018-11-11T10:07:15.293Z,4.23
2018-11-11T10:10:23.627Z,4.63
2018-11-11T10:13:30.119Z,4.03
2018-11-11T10:16:38.594Z,4.87
2018-11-11T10:19:45.522Z,4.20
2018-11-11T10:23:52.386Z,5.77
2018-11-11T10:27:08.649Z,4.57
2018-11-11T10:30:16.720Z,5.00
2018-11-11T10:34:24.119Z,4.50
2018-11-11T10:37:33.184Z,4.57
2018-11-11T10:40:45.862Z,4.43
2018-11-11T10:43:54.470Z,4.73
2018-11-11T10:47:03.190Z,4.53
2018-11-11T10:50:08.536Z,4.23
2018-11-11T10:53:11.589Z,4.43
2018-11-11T10:56:14.674Z,12.40
2018-11-11T10:59:17.761Z,4.33
2018-11-11T11:02:25.126Z,4.33
2018-11-11T11:05:28.214Z,3.77
2018-11-11T11:08:31.432Z,3.60
2018-11-11T11:11:34.542Z,3.60
2018-11-11T11:14:37.621Z,3.63
2018-11-11T11:17:41.182Z,3.83
2018-11-11T11:20:44.372Z,3.83
2018-11-11T11:23:47.978Z,3.63
2018-11-11T11:26:51.087Z,3.70
2018-11-11T11:29:54.182Z,3.20
2018-11-11T11:32:57.268Z,3.47
2018-11-11T11:36:00.387Z,2.93
2018-11-11T11:39:04.466Z,3.50
2018-11-11T11:42:07.546Z,3.00
2018-11-11T11:45:11.574Z,3.70
2018-11-11T11:48:14.645Z,3.10
2018-11-11T11:51:17.743Z,3.60
2018-11-11T11:54:20.876Z,3.37
2018-11-11T11:57:23.974Z,3.50
2018-11-11T12:00:27.043Z,3.30
2018-11-11T12:03:30.145Z,4.90
2018-11-11T12:06:33.224Z,4.17
2018-11-11T12:09:36.301Z,3.50
2018-11-11T12:12:39.402Z,3.17
2018-11-11T12:15:42.890Z,3.37
2018-11-11T12:18:45.977Z,3.23
2018-11-11T12:21:49.066Z,3.27
2018-11-11T12:24:52.150Z,3.57
2018-11-11T12:27:55.566Z,3.17
2018-11-11T12:30:58.748Z,3.27
2018-11-11T12:34:01.771Z,3.17
2018-11-11T12:37:05.392Z,3.23
2018-11-11T12:40:09.708Z,2.93
2018-11-11T12:43:12.696Z,3.00
2018-11-11T12:46:15.741Z,2.90
2018-11-11T12:49:19.047Z,4.90
2018-11-11T12:52:22.710Z,2.83
2018-11-11T12:55:25.889Z,3.30
2018-11-11T12:58:28.931Z,2.80
2018-11-11T13:01:32.009Z,2.77
2018-11-11T13:04:35.139Z,2.67
2018-11-11T13:07:38.178Z,2.53
2018-11-11T13:10:41.274Z,2.40
2018-11-11T13:13:44.360Z,2.17
2018-11-11T13:16:47.451Z,2.20
2018-11-11T13:19:50.591Z,2.00
2018-11-11T13:22:53.817Z,1.93
2018-11-11T13:25:56.734Z,1.83
2018-11-11T13:28:59.850Z,2.27
2018-11-11T13:32:03.033Z,2.57
2018-11-11T13:35:07.406Z,2.17
2018-11-11T13:38:10.508Z,2.07
2018-11-11T13:41:13.590Z,2.20
2018-11-11T13:44:16.654Z,2.37
2018-11-11T13:47:19.738Z,2.37
2018-11-11T13:50:24.224Z,2.00
2018-11-11T13:53:27.210Z,2.30
2018-11-11T13:56:30.321Z,2.30
2018-11-11T13:59:33.403Z,2.00
2018-11-11T14:02:36.564Z,1.97
2018-11-11T14:05:39.577Z,2.30
2018-11-11T14:08:42.746Z,2.17
2018-11-11T14:11:45.817Z,2.20
2018-11-11T14:14:48.920Z,2.30
2018-11-11T14:17:52.491Z,1.67
2018-11-11T14:20:55.561Z,2.07
2018-11-11T14:23:58.632Z,2.63
2018-11-11T14:27:01.710Z,2.97
2018-11-11T14:30:07.010Z,3.10
2018-11-11T14:33:10.118Z,2.70
2018-11-11T14:36:13.212Z,2.50
2018-11-11T14:39:16.507Z,1.90
2018-11-11T14:42:19.603Z,1.87
2018-11-11T14:45:23.273Z,2.30
2018-11-11T14:48:26.370Z,2.23
2018-11-11T14:51:29.443Z,2.13
2018-11-11T14:54:32.526Z,2.93
2018-11-11T14:57:35.638Z,2.60
2018-11-11T15:00:38.717Z,2.10
2018-11-11T15:03:41.794Z,2.27
2018-11-11T15:06:44.875Z,2.50
2018-11-11T15:09:47.978Z,2.80
2018-11-11T15:12:51.096Z,2.40
2018-11-11T15:15:54.140Z,2.40
2018-11-11T15:18:57.246Z,2.63
2018-11-11T15:22:00.282Z,2.93
2018-11-11T15:25:03.408Z,2.67
2018-11-11T15:28:06.971Z,3.10
2018-11-11T15:31:10.200Z,2.67
2018-11-11T15:34:13.137Z,2.53
2018-11-11T15:37:16.237Z,2.90
2018-11-11T15:40:22.314Z,3.17
2018-11-11T15:43:25.411Z,3.10
2018-11-11T15:46:28.486Z,2.80
2018-11-11T15:49:31.586Z,3.30
2018-11-11T15:52:34.698Z,2.93
2018-11-11T15:55:38.766Z,3.80
2018-11-11T15:58:41.947Z,2.93
2018-11-11T16:01:45.064Z,4.07
2018-11-11T16:04:48.154Z,3.37
2018-11-11T16:07:51.983Z,3.60
2018-11-11T16:10:56.237Z,3.50
2018-11-11T16:13:59.327Z,3.03
2018-11-11T16:17:02.448Z,3.60
2018-11-11T16:20:08.636Z,3.50
2018-11-11T16:23:11.726Z,3.37
2018-11-11T16:26:14.798Z,3.60
2018-11-11T16:29:17.929Z,3.13
2018-11-11T16:32:21.017Z,3.70
2018-11-11T16:35:25.107Z,3.20
2018-11-11T16:38:28.194Z,3.53
2018-11-11T16:41:31.541Z,3.20
2018-11-11T16:44:34.598Z,3.07
2018-11-11T16:47:38.137Z,3.33
2018-11-11T16:50:41.251Z,3.70
2018-11-11T16:53:44.323Z,3.57
2018-11-11T16:56:47.523Z,3.67
2018-11-11T16:59:50.615Z,4.03
2018-11-11T17:02:54.286Z,3.17
2018-11-11T17:05:57.354Z,2.90
2018-11-11T17:09:00.437Z,2.53
2018-11-11T17:12:03.527Z,3.53
2018-11-11T17:15:07.926Z,3.17
2018-11-11T17:18:10.986Z,3.07
2018-11-11T17:21:14.059Z,3.07
2018-11-11T17:24:17.137Z,2.80
2018-11-11T17:27:20.278Z,2.57
2018-11-11T17:30:25.694Z,2.87
2018-11-11T17:33:28.798Z,3.03
2018-11-11T17:36:33.955Z,2.23
2018-11-11T17:39:37.046Z,2.50
2018-11-11T17:42:41.431Z,2.70
2018-11-11T17:45:44.513Z,3.30
2018-11-11T17:48:47.651Z,2.40
2018-11-11T17:51:50.705Z,3.13
2018-11-11T17:54:53.874Z,3.13
2018-11-11T17:57:57.014Z,3.20
2018-11-11T18:01:00.210Z,2.37
2018-11-11T18:04:22.314Z,2.20
2018-11-11T18:07:25.394Z,2.93
2018-11-11T18:10:28.754Z,2.10
2018-11-11T18:13:31.806Z,2.37
2018-11-11T18:16:34.885Z,2.30
2018-11-11T18:19:37.962Z,2.40
2018-11-11T18:22:41.043Z,2.60
2018-11-11T18:25:44.127Z,2.40
2018-11-11T18:28:47.211Z,1.90
2018-11-11T18:31:50.288Z,1.90
2018-11-11T18:34:53.363Z,2.23
2018-11-11T18:37:56.711Z,2.07
2018-11-11T18:40:59.801Z,2.23
2018-11-11T18:44:02.897Z,2.17
2018-11-11T18:47:05.991Z,2.13
2018-11-11T18:50:12.481Z,2.50
2018-11-11T18:53:15.541Z,3.77
2018-11-11T18:56:18.631Z,3.60
2018-11-11T18:59:21.703Z,2.43
2018-11-11T19:02:24.793Z,2.40
2018-11-11T19:05:28.181Z,2.37
2018-11-11T19:08:31.290Z,2.37
2018-11-11T19:11:34.365Z,2.30
2018-11-11T19:14:37.458Z,2.23
2018-11-11T19:17:41.406Z,1.47
2018-11-11T19:20:44.491Z,2.27
2018-11-11T19:23:47.646Z,2.13
2018-11-11T19:26:50.758Z,2.30
2018-11-11T19:29:53.850Z,2.10
2018-11-11T19:32:56.953Z,2.07
2018-11-11T19:36:00.040Z,2.23
2018-11-11T19:39:03.122Z,1.90
2018-11-11T19:42:06.340Z,2.30
2018-11-11T19:45:10.702Z,2.47
2018-11-11T19:48:13.856Z,2.07
2018-11-11T19:51:16.869Z,2.13
2018-11-11T19:54:19.962Z,1.77
2018-11-11T19:57:23.021Z,2.03
2018-11-11T20:00:27.474Z,1.90
2018-11-11T20:03:30.591Z,1.90
2018-11-11T20:06:33.703Z,1.97
2018-11-11T20:09:36.774Z,1.90
2018-11-11T20:12:39.894Z,1.90
2018-11-11T20:15:42.989Z,2.33
2018-11-11T20:18:46.063Z,2.03
2018-11-11T20:21:49.142Z,1.80
2018-11-11T20:24:52.209Z,2.60
2018-11-11T20:27:55.359Z,1.97
2018-11-11T20:30:58.423Z,2.20
2018-11-11T20:34:01.546Z,1.73
2018-11-11T20:37:04.972Z,1.90
2018-11-11T20:40:10.303Z,1.97
2018-11-11T20:43:13.437Z,2.93
2018-11-11T20:46:16.526Z,6.33
2018-11-11T20:49:19.581Z,4.80
2018-11-11T20:52:22.682Z,5.57
2018-11-11T20:55:25.829Z,2.27
2018-11-11T20:58:28.923Z,3.90
2018-11-11T21:01:32.051Z,4.10
2018-11-11T21:04:35.561Z,3.97
2018-11-11T21:07:38.779Z,2.90
2018-11-11T21:10:41.916Z,3.53
2018-11-11T21:13:44.942Z,2.50
2018-11-11T21:16:48.032Z,3.43
2018-11-11T21:19:51.133Z,2.70
2018-11-11T21:22:54.218Z,3.20
2018-11-11T21:25:57.310Z,3.13
2018-11-11T21:29:00.369Z,2.70
2018-11-11T21:32:03.558Z,2.40
2018-11-11T21:35:06.982Z,2.37
2018-11-11T21:38:10.077Z,2.33
2018-11-11T21:41:13.142Z,2.20
2018-11-11T21:44:16.262Z,2.00
2018-11-11T21:47:19.366Z,2.33
2018-11-11T21:50:23.693Z,2.27
2018-11-11T21:53:30.008Z,2.20
2018-11-11T21:56:33.145Z,2.50
2018-11-11T21:59:36.318Z,1.40
2018-11-11T22:02:39.550Z,1.73
2018-11-11T22:05:42.783Z,1.73
2018-11-11T22:08:46.043Z,1.70
2018-11-11T22:11:49.354Z,1.40
2018-11-11T22:14:52.573Z,1.40
2018-11-11T22:17:55.783Z,1.40
2018-11-11T22:20:59.009Z,1.10
2018-11-11T22:24:02.248Z,0.90
2018-11-11T22:27:06.084Z,1.00
2018-11-11T22:30:10.795Z,0.80
2018-11-11T22:33:13.951Z,1.00
2018-11-11T22:36:17.178Z,1.40
2018-11-11T22:39:20.390Z,1.10
2018-11-11T22:42:23.711Z,1.10
2018-11-11T22:45:27.075Z,0.97
2018-11-11T22:48:30.355Z,0.97
2018-11-11T22:51:33.559Z,0.80
2018-11-11T22:54:36.803Z,1.00
2018-11-11T22:57:40.591Z,0.80
2018-11-11T23:01:49.107Z,0.90
2018-11-11T23:04:52.442Z,0.90
2018-11-11T23:07:56.824Z,1.10
2018-11-11T23:11:00.124Z,0.90
2018-11-11T23:14:03.344Z,0.83
2018-11-11T23:17:06.617Z,0.87
2018-11-11T23:20:11.294Z,1.40
2018-11-11T23:23:14.581Z,1.30
2018-11-11T23:26:17.855Z,0.70
2018-11-11T23:29:21.103Z,0.60
2018-11-11T23:32:24.373Z,0.67
2018-11-11T23:35:27.626Z,0.80
2018-11-11T23:38:30.982Z,0.70
2018-11-11T23:41:34.267Z,0.90
2018-11-11T23:44:37.563Z,0.90
2018-11-11T23:47:40.879Z,0.80
2018-11-11T23:50:44.095Z,0.80
2018-11-11T23:53:47.362Z,1.10
2018-11-11T23:56:50.638Z,1.00
2018-11-11T23:59:53.942Z,1.03
